Theresa, Wisconsin
Current Conditions -  °F | °C
As of 4:35 AM on Saturday 01 Nov 2014 (Local Time) from KUNU Reporting Station
Overcast Overcast  
Wind Chill: 26°   Ceiling: 3000
Heat Index: 31°   Visibility: 10mi
Dew Point: 21°   Wind: 5mph
Humidity: 67%   Direction: 330°NNW
Pressure: 30.44"   Gusts: NA
Location:  43.52°N, 88.45°W
Report Text: KUNU 010935Z AUTO 33004KT 10SM OVC030 M01/M06 A3044 RMK AO2 T10061060
Loading
Personal Weather Stations






























Interactive Weather Map
Tropical Storm Tracking
New forecast layout! Learn more

10-Day Weather Forecast

Advertisements
Track Severe Weather on mobile